^^
Grace C. Lehan Memorial Weather Station Historical Data
Daily Summary for April 24, 2021 Units:  Metric    English   Both
Daily Weekly Monthly Yearly
  High: Low: Average:
Temperature: 24.1 °C 14.8 °C 19.7 °C
Dew Point: 22.1 °C 13.2 °C 17 °C
Humidity: 96% 60.3% 85%
Wind Speed: 4.2km/h 0km/h 0.5km/h
Wind Gust: 20.9km/h - -
Wind- - SSW
Pressure: 1016.5 hPa 1012.4 hPa -
Precipitation: 36.07 mm    
 
 
Tabular Data for April 24, 2021
Time Temperature Dew Point Pressure Wind Wind Speed Wind Gust Humidity Rainfall Rate (Hourly) solar
00:00 23.9 °C 22 °C 1013.4 hPa Calm   11.3 km/h 89% 0 mm 0 W/m2
00:09 24 °C 22.1 °C 1013.4 hPa SE 1.9 km/h 17.7 km/h 89% 0 mm 0 W/m2
00:14 24 °C 22.1 °C 1013.4 hPa SE 2.1 km/h 17.7 km/h 89% 0 mm 0 W/m2
00:19 24.1 °C 22.1 °C 1013.4 hPa ESE 1.8 km/h 17.7 km/h 89% 0 mm 0 W/m2
00:24 24.1 °C 22.1 °C 1013.1 hPa ESE 1.4 km/h 17.7 km/h 89% 0 mm 0 W/m2
00:29 24.1 °C 22.1 °C 1013.1 hPa ESE 2.1 km/h 17.7 km/h 89% 0 mm 0 W/m2
00:34 24.1 °C 22.1 °C 1013.1 hPa ESE 1.4 km/h 17.7 km/h 88.7% 0 mm 0 W/m2
00:39 24 °C 21.9 °C 1013.1 hPa ESE 0.8 km/h 9.7 km/h 88% 0 mm 0 W/m2
00:44 24 °C 21.9 °C 1013.4 hPa ESE 0.8 km/h 11.3 km/h 88% 0 mm 0 W/m2
00:49 24 °C 21.9 °C 1013.4 hPa SSE 1.8 km/h 11.3 km/h 88% 0 mm 0 W/m2
00:54 24 °C 21.9 °C 1013.4 hPa ESE 1.1 km/h 14.5 km/h 88% 0 mm 0 W/m2
00:59 24 °C 21.9 °C 1013.4 hPa SE 1.8 km/h 14.5 km/h 88% 0 mm 0 W/m2
01:04 24 °C 21.9 °C 1013.4 hPa SE 2.3 km/h 14.5 km/h 88% 0 mm 0 W/m2
01:09 24 °C 21.9 °C 1013.1 hPa ESE 1.1 km/h 14.5 km/h 88% 0 mm 0 W/m2
01:14 23.9 °C 21.9 °C 1013.1 hPa SE 2.1 km/h 14.5 km/h 88% 0 mm 0 W/m2
01:19 23.9 °C 21.8 °C 1013.1 hPa ESE 1.9 km/h 14.5 km/h 88% 0 mm 0 W/m2
01:24 23.9 °C 21.8 °C 1013.1 hPa ESE 1.4 km/h 14.5 km/h 88% 0 mm 0 W/m2
01:29 23.9 °C 21.8 °C 1013.1 hPa ESE 0.8 km/h 14.5 km/h 88% 0 mm 0 W/m2
01:34 23.9 °C 21.8 °C 1013.1 hPa SE 1.4 km/h 14.5 km/h 88% 0 mm 0 W/m2
01:39 23.8 °C 21.8 °C 1013.1 hPa SSE 1.4 km/h 17.7 km/h 88% 0 mm 0 W/m2
01:44 23.8 °C 21.7 °C 1013.1 hPa SSE 0.5 km/h 17.7 km/h 88% 0 mm 0 W/m2
01:49 23.8 °C 21.7 °C 1013.1 hPa SE 2.4 km/h 17.7 km/h 88% 0 mm 0 W/m2
01:54 23.8 °C 21.7 °C 1013.1 hPa SE 4.2 km/h 19.3 km/h 88% 0 mm 0 W/m2
01:59 23.8 °C 21.7 °C 1013.1 hPa SE 2.1 km/h 19.3 km/h 88% 0 mm 0 W/m2
02:04 23.8 °C 21.7 °C 1012.8 hPa SE 1.8 km/h 19.3 km/h 88% 0 mm 0 W/m2
02:09 23.8 °C 21.7 °C 1012.8 hPa ESE 1.8 km/h 20.9 km/h 88% 0 mm 0 W/m2
02:14 23.8 °C 21.7 °C 1012.8 hPa ESE 2.1 km/h 20.9 km/h 88.2% 0 mm 0 W/m2
02:19 23.8 °C 21.7 °C 1012.8 hPa SE 2.9 km/h 20.9 km/h 88.4% 0 mm 0 W/m2
02:24 23.8 °C 21.7 °C 1012.8 hPa SE 1.9 km/h 20.9 km/h 88% 0 mm 0 W/m2
02:29 23.8 °C 21.8 °C 1012.8 hPa SSE 2.4 km/h 20.9 km/h 88.8% 0 mm 0 W/m2
02:34 23.8 °C 21.9 °C 1013.1 hPa SE 1 km/h 20.9 km/h 89% 0 mm 0 W/m2
02:39 23.8 °C 21.8 °C 1013.1 hPa South 1.1 km/h 9.7 km/h 89% 0 mm 0 W/m2
02:44 23.8 °C 21.8 °C 1012.8 hPa SE 1.3 km/h 14.5 km/h 89% 0 mm 0 W/m2
02:49 23.8 °C 21.8 °C 1012.8 hPa South 0.8 km/h 14.5 km/h 89% 0 mm 0 W/m2
02:54 23.8 °C 21.8 °C 1012.4 hPa ESE 2.7 km/h 19.3 km/h 89% 0.25 mm 0 W/m2
02:59 23.7 °C 21.9 °C 1012.4 hPa SSE 1.3 km/h 19.3 km/h 89.5% 0.51 mm 0 W/m2
03:04 23.6 °C 21.9 °C 1012.4 hPa South 0.6 km/h 19.3 km/h 90% 0.51 mm 0 W/m2
03:09 23.5 °C 21.9 °C 1012.8 hPa South 1.8 km/h 9.7 km/h 90.7% 0.51 mm 0 W/m2
03:14 23.4 °C 21.9 °C 1012.8 hPa Calm   9.7 km/h 91% 1.02 mm 0 W/m2
03:19 23.3 °C 21.8 °C 1012.4 hPa SSE 1.4 km/h 9.7 km/h 91% 1.02 mm 0 W/m2
03:24 23.3 °C 21.9 °C 1012.8 hPa South 0.8 km/h 9.7 km/h 91.8% 1.02 mm 0 W/m2
03:29 23.2 °C 21.8 °C 1012.8 hPa SW 1.1 km/h 9.7 km/h 92% 1.27 mm 0 W/m2
03:34 23.2 °C 21.8 °C 1012.8 hPa South 0.2 km/h 9.7 km/h 92% 1.52 mm 0 W/m2
03:39 23.2 °C 21.9 °C 1012.8 hPa SE 0.2 km/h 4.8 km/h 92.4% 1.52 mm 0 W/m2
03:44 23.2 °C 21.9 °C 1012.8 hPa SW 0.5 km/h 6.4 km/h 93% 1.52 mm 0 W/m2
03:49 23.1 °C 21.9 °C 1012.8 hPa Calm   6.4 km/h 93% 1.52 mm 0 W/m2
03:54 23.1 °C 21.9 °C 1012.4 hPa SE 1.1 km/h 9.7 km/h 93% 1.78 mm 0 W/m2
03:59 23.1 °C 21.9 °C 1012.8 hPa SE 1.3 km/h 9.7 km/h 93% 2.03 mm 0 W/m2
04:00 23.1 °C 21.9 °C 1012.8 hPa Calm   9.7 km/h 93% 2.03 mm 0 W/m2
04:09 23.1 °C 21.8 °C 1013.1 hPa Calm   3.2 km/h 93% 4.57 mm 0 W/m2
04:14 22.9 °C 21.6 °C 1013.1 hPa WSW 0.3 km/h 3.2 km/h 92.2% 5.84 mm 0 W/m2
04:19 22.6 °C 21.2 °C 1013.1 hPa WSW 1.1 km/h 9.7 km/h 92% 6.86 mm 0 W/m2
04:24 22.1 °C 20.6 °C 1013.4 hPa WSW 0.5 km/h 9.7 km/h 91% 8.64 mm 0 W/m2
04:29 21.7 °C 20.2 °C 1013.4 hPa WSW 0.2 km/h 9.7 km/h 91% 9.65 mm 0 W/m2
04:34 21.3 °C 19.8 °C 1013.1 hPa WSW 0.6 km/h 9.7 km/h 91% 12.19 mm 0 W/m2
04:39 21.1 °C 19.6 °C 1013.4 hPa West 1 km/h 8 km/h 91.7% 18.8 mm 0 W/m2
04:44 20.8 °C 19.4 °C 1013.4 hPa WNW 1 km/h 8 km/h 92% 22.1 mm 0 W/m2
04:49 20.5 °C 19.2 °C 1013.1 hPa Calm   8 km/h 92.2% 23.11 mm 0 W/m2
04:54 20.4 °C 19.2 °C 1013.1 hPa Calm   8 km/h 93% 23.88 mm 0 W/m2
04:59 20.3 °C 19.1 °C 1013.1 hPa WNW 0.3 km/h 8 km/h 93% 23.88 mm 0 W/m2
05:04 20.1 °C 18.9 °C 1013.1 hPa West 0.6 km/h 8 km/h 93% 23.88 mm 0 W/m2
05:09 20 °C 18.9 °C 1013.1 hPa Calm   4.8 km/h 93.6% 23.37 mm 0 W/m2
05:14 19.9 °C 18.9 °C 1013.1 hPa Calm   4.8 km/h 94% 23.62 mm 0 W/m2
05:19 19.8 °C 18.8 °C 1012.8 hPa Calm   4.8 km/h 94% 23.62 mm 0 W/m2
05:24 19.8 °C 18.8 °C 1013.1 hPa Calm   4.8 km/h 94% 23.88 mm 0 W/m2
05:29 19.8 °C 18.8 °C 1013.1 hPa WNW 1 km/h 6.4 km/h 94% 25.15 mm 0 W/m2
05:34 19.8 °C 18.8 °C 1013.1 hPa Calm   6.4 km/h 94.5% 25.15 mm 0 W/m2
05:39 19.7 °C 18.9 °C 1012.8 hPa Calm     95% 17.78 mm 0 W/m2
05:44 19.7 °C 18.9 °C 1012.8 hPa Calm     95% 17.78 mm 0 W/m2
05:49 19.7 °C 18.8 °C 1013.1 hPa Calm     95% 17.78 mm 0 W/m2
05:54 19.7 °C 18.8 °C 1013.1 hPa Calm     95% 17.78 mm 0 W/m2
05:59 19.7 °C 18.8 °C 1013.1 hPa Calm     95% 17.78 mm 0 W/m2
06:04 19.7 °C 18.8 °C 1013.4 hPa Calm     95% 17.78 mm 0 W/m2
06:09 19.6 °C 18.8 °C 1013.4 hPa WNW 0.2 km/h 1.6 km/h 95% 3.05 mm 0 W/m2
06:14 19.5 °C 18.7 °C 1013.4 hPa West 1 km/h 8 km/h 95% 3.05 mm 0 W/m2
06:19 19.4 °C 18.6 °C 1013.4 hPa West 0.2 km/h 8 km/h 95% 3.05 mm 0 W/m2
06:24 19.3 °C 18.5 °C 1013.4 hPa West 0.5 km/h 8 km/h 95% 3.05 mm 0 W/m2
06:29 19.2 °C 18.4 °C 1013.4 hPa West 1.8 km/h 9.7 km/h 95% 3.05 mm 0 W/m2
06:34 19.1 °C 18.3 °C 1013.4 hPa WNW 1.3 km/h 9.7 km/h 95% 3.05 mm 0 W/m2
06:39 19 °C 18.2 °C 1013.4 hPa SW 2.3 km/h 11.3 km/h 95% 1.02 mm 0 W/m2
06:43 18.9 °C 18.1 °C 1013.4 hPa SW 0.2 km/h 11.3 km/h 95% 1.02 mm 0 W/m2
07:00 18.7 °C 17.9 °C 1013.4 hPa WSW 1.6 km/h 12.9 km/h 95% 0 mm 0 W/m2
07:30 18.3 °C 17.5 °C 1013.8 hPa West 1.6 km/h 11.3 km/h 95% 0 mm 0 W/m2
08:04 17.9 °C 17.1 °C 1015.1 hPa WSW 0.8 km/h 11.3 km/h 95% 2.54 mm 11 W/m2
08:09 17.8 °C 16.9 °C 1015.1 hPa West 2.4 km/h 14.5 km/h 95% 2.54 mm 12 W/m2
08:14 17.7 °C 16.8 °C 1014.8 hPa West 3.2 km/h 14.5 km/h 95% 2.54 mm 12 W/m2
08:19 17.5 °C 16.7 °C 1014.8 hPa WSW 0.5 km/h 14.5 km/h 95% 3.05 mm 5 W/m2
08:24 17.4 °C 16.6 °C 1014.4 hPa West 3.2 km/h 14.5 km/h 95% 3.56 mm 0 W/m2
08:29 17.3 °C 16.4 °C 1014.8 hPa West 1.3 km/h 14.5 km/h 95% 4.06 mm 0 W/m2
08:34 17.1 °C 16.3 °C 1015.1 hPa West 0.6 km/h 14.5 km/h 95% 28.96 mm 0 W/m2
08:39 17.1 °C 16.3 °C 1015.1 hPa West 0.3 km/h 8 km/h 95% 29.46 mm 9 W/m2
08:44 17 °C 16.2 °C 1014.8 hPa West 0.2 km/h 8 km/h 95% 29.72 mm 9 W/m2
08:49 16.9 °C 16.1 °C 1015.1 hPa Calm   8 km/h 95% 29.72 mm 7 W/m2
08:54 16.9 °C 16.1 °C 1015.1 hPa Calm   8 km/h 95% 29.72 mm 11 W/m2
08:59 16.9 °C 16.1 °C 1015.1 hPa Calm   8 km/h 95% 29.72 mm 11 W/m2
09:04 16.8 °C 16 °C 1015.1 hPa West 0.3 km/h 8 km/h 95% 29.72 mm 12 W/m2
09:09 16.8 °C 16 °C 1015.8 hPa Calm   6.4 km/h 95% 1.78 mm 9 W/m2
09:14 16.8 °C 15.9 °C 1016.1 hPa Calm   6.4 km/h 95% 2.03 mm 7 W/m2
09:19 16.7 °C 15.9 °C 1016.1 hPa Calm   6.4 km/h 95% 2.29 mm 7 W/m2
09:24 16.7 °C 15.9 °C 1015.8 hPa Calm   6.4 km/h 95% 2.54 mm 7 W/m2
09:29 16.7 °C 15.8 °C 1016.1 hPa Calm   6.4 km/h 95% 2.79 mm 11 W/m2
09:34 16.6 °C 15.8 °C 1016.1 hPa West 1.9 km/h 11.3 km/h 95% 3.05 mm 12 W/m2
09:39 16.4 °C 15.6 °C 1015.8 hPa WSW 1 km/h 11.3 km/h 95% 3.05 mm 16 W/m2
09:44 16.1 °C 15.3 °C 1015.8 hPa WNW 2.9 km/h 11.3 km/h 95% 3.05 mm 32 W/m2
09:49 16 °C 15.2 °C 1015.8 hPa Calm   11.3 km/h 95% 3.3 mm 35 W/m2
09:54 16 °C 15.2 °C 1015.8 hPa Calm   11.3 km/h 95% 3.3 mm 60 W/m2
09:59 16.1 °C 15.3 °C 1015.8 hPa Calm   11.3 km/h 95.3% 3.3 mm 79 W/m2
10:04 16.1 °C 15.4 °C 1015.8 hPa WNW 0.2 km/h 11.3 km/h 95.8% 3.3 mm 84 W/m2
10:09 16.2 °C 15.5 °C 1015.8 hPa Calm   3.2 km/h 96% 1.78 mm 63 W/m2
10:14 16.1 °C 15.4 °C 1015.5 hPa Calm   3.2 km/h 95.5% 2.03 mm 83 W/m2
10:19 16.1 °C 15.3 °C 1015.5 hPa Calm   3.2 km/h 95% 2.29 mm 120 W/m2
10:24 16.1 °C 15.3 °C 1015.5 hPa WNW 0.8 km/h 4.8 km/h 95.3% 2.29 mm 350 W/m2
10:29 16.2 °C 15.6 °C 1015.5 hPa Calm   4.8 km/h 96% 2.29 mm 313 W/m2
10:33 16.4 °C 15.8 °C 1015.5 hPa Calm   4.8 km/h 96% 2.29 mm 178 W/m2
10:39 16.4 °C 15.7 °C 1015.5 hPa Calm     95.3% 1.02 mm 248 W/m2
10:44 16.4 °C 15.6 °C 1015.1 hPa Calm     95% 1.02 mm 304 W/m2
10:49 16.3 °C 15.4 °C 1015.5 hPa Calm     94.9% 1.02 mm 148 W/m2
10:54 16.2 °C 15.2 °C 1015.5 hPa Calm     94% 1.02 mm 183 W/m2
10:59 16.2 °C 15.2 °C 1015.5 hPa Calm     94% 1.02 mm 236 W/m2
11:04 16.2 °C 15.2 °C 1015.8 hPa Calm     94% 1.02 mm 207 W/m2
11:09 16.3 °C 15.3 °C 1015.8 hPa Calm     94% 0.51 mm 146 W/m2
11:14 16.4 °C 15.6 °C 1015.8 hPa Calm     95% 0.51 mm 146 W/m2
11:19 16.6 °C 15.6 °C 1015.8 hPa Calm     94% 0.51 mm 125 W/m2
11:24 16.6 °C 15.6 °C 1015.8 hPa Calm     94% 0.51 mm 134 W/m2
11:29 16.6 °C 15.6 °C 1015.8 hPa Calm     94% 0.51 mm 125 W/m2
11:34 16.6 °C 15.4 °C 1015.8 hPa Calm     93.1% 0.51 mm 151 W/m2
11:39 16.6 °C 15.4 °C 1015.8 hPa Calm     93.2% 0 mm 146 W/m2
11:44 16.7 °C 15.7 °C 1015.8 hPa WNW 0.2 km/h 3.2 km/h 94% 0 mm 258 W/m2
11:49 16.8 °C 15.8 °C 1015.8 hPa Calm   3.2 km/h 94% 0 mm 290 W/m2
11:54 16.9 °C 15.9 °C 1015.5 hPa Calm   3.2 km/h 93.8% 0 mm 274 W/m2
11:59 17.1 °C 16.1 °C 1015.8 hPa Calm   3.2 km/h 93.9% 0 mm 183 W/m2
12:09 17.3 °C 16.2 °C 1015.8 hPa Calm     93.4% 0 mm 204 W/m2
12:14 17.4 °C 16.3 °C 1015.8 hPa Calm     93% 0 mm 183 W/m2
12:19 17.4 °C 16.3 °C 1015.8 hPa Calm     93% 0 mm 213 W/m2
12:24 17.4 °C 16.2 °C 1015.8 hPa Calm     92.5% 0 mm 213 W/m2
12:29 17.4 °C 16.1 °C 1015.8 hPa Calm     92% 0 mm 287 W/m2
12:34 17.5 °C 16.2 °C 1015.5 hPa Calm     92% 0 mm 287 W/m2
12:39 17.7 °C 16.6 °C 1015.8 hPa Calm     93% 0 mm 209 W/m2
12:44 17.8 °C 16.4 °C 1015.8 hPa Calm     92% 0 mm 146 W/m2
12:49 17.7 °C 16.2 °C 1015.8 hPa Calm     91% 0 mm 144 W/m2
12:54 17.8 °C 16.3 °C 1015.8 hPa Calm     91% 0 mm 195 W/m2
12:59 17.7 °C 16.1 °C 1015.8 hPa Calm     90.3% 0 mm 227 W/m2
13:04 17.7 °C 16.1 °C 1015.8 hPa Calm     90.3% 0 mm 253 W/m2
13:09 17.8 °C 16.2 °C 1015.8 hPa Calm     90.2% 0 mm 313 W/m2
13:14 17.9 °C 16.3 °C 1015.8 hPa Calm     90.5% 0 mm 369 W/m2
13:19 18 °C 16.4 °C 1015.8 hPa Calm     90.3% 0 mm 330 W/m2
13:24 18.2 °C 16.6 °C 1015.8 hPa Calm     90.4% 0 mm 316 W/m2
13:29 18.4 °C 16.8 °C 1015.5 hPa Calm     90% 0 mm 295 W/m2
13:34 18.7 °C 16.9 °C 1015.5 hPa Calm   1.6 km/h 89.3% 0 mm 315 W/m2
13:39 19 °C 17.1 °C 1015.5 hPa Calm   1.6 km/h 88.7% 0 mm 104 W/m2
13:44 19.2 °C 17.1 °C 1015.5 hPa Calm   1.6 km/h 87.1% 0 mm 83 W/m2
13:49 19.4 °C 16.9 °C 1015.1 hPa WNW 0.2 km/h 3.2 km/h 85.5% 0 mm 49 W/m2
13:54 19.5 °C 16.8 °C 1015.1 hPa WNW 0.2 km/h 3.2 km/h 84.2% 0 mm 77 W/m2
13:59 19.6 °C 16.8 °C 1015.1 hPa WNW 0.2 km/h 3.2 km/h 83.8% 0 mm 93 W/m2
14:04 19.8 °C 16.9 °C 1015.1 hPa SW 0.6 km/h 8 km/h 83.7% 0 mm 74 W/m2
14:09 19.9 °C 16.7 °C 1015.1 hPa Calm   8 km/h 81.9% 0 mm 49 W/m2
14:14 19.9 °C 16.7 °C 1015.1 hPa SW 0.3 km/h 8 km/h 81.5% 0 mm 77 W/m2
14:19 20.1 °C 16.8 °C 1015.1 hPa SE 0.5 km/h 8 km/h 81.5% 0 mm 207 W/m2
14:24 20.2 °C 16.8 °C 1015.1 hPa Calm   8 km/h 81.2% 0 mm 276 W/m2
14:29 20.3 °C 16.9 °C 1015.1 hPa SW 0.2 km/h 8 km/h 81% 0 mm 279 W/m2
14:34 20.4 °C 16.9 °C 1014.8 hPa Calm   8 km/h 80.5% 0 mm 359 W/m2
14:39 20.6 °C 17 °C 1014.8 hPa Calm     79.9% 0 mm 274 W/m2
14:44 20.7 °C 16.9 °C 1014.8 hPa Calm     78.6% 0 mm 311 W/m2
14:49 20.9 °C 17 °C 1014.4 hPa SW 0.5 km/h 4.8 km/h 78% 0 mm 348 W/m2
14:54 21.2 °C 17.2 °C 1014.4 hPa SW 0.5 km/h 4.8 km/h 77.9% 0 mm 295 W/m2
14:59 21.4 °C 16.9 °C 1014.4 hPa Calm   4.8 km/h 75.7% 0 mm 250 W/m2
15:04 21.4 °C 16.7 °C 1014.1 hPa Calm   4.8 km/h 74.2% 0 mm 234 W/m2
15:09 21.6 °C 17.2 °C 1014.1 hPa Calm     75.9% 0 mm 234 W/m2
15:14 21.7 °C 17.3 °C 1014.1 hPa Calm     76.1% 0 mm 114 W/m2
15:19 21.8 °C 17.1 °C 1014.1 hPa Calm     74.1% 0 mm 83 W/m2
15:24 22 °C 16.9 °C 1014.1 hPa Calm     72.9% 0 mm 174 W/m2
15:29 22.2 °C 16.8 °C 1014.1 hPa Calm     71.6% 0 mm 448 W/m2
15:34 22.4 °C 16.9 °C 1014.1 hPa WSW 1.4 km/h 4.8 km/h 71% 0 mm 144 W/m2
15:39 22.6 °C 16.8 °C 1014.1 hPa WSW 1.8 km/h 14.5 km/h 69.9% 0 mm 105 W/m2
15:44 22.7 °C 16.2 °C 1014.1 hPa Calm   14.5 km/h 66.7% 0 mm 214 W/m2
15:49 22.8 °C 16.1 °C 1014.1 hPa WNW 0.2 km/h 14.5 km/h 66.2% 0 mm 339 W/m2
15:54 22.9 °C 16.6 °C 1014.1 hPa West 1.9 km/h 14.5 km/h 67.5% 0 mm 144 W/m2
15:59 23 °C 16.6 °C 1014.1 hPa WSW 2.3 km/h 14.5 km/h 67% 0 mm 174 W/m2
16:09 23.3 °C 15.6 °C 1014.1 hPa West 0.3 km/h 4.8 km/h 62% 0 mm 171 W/m2
16:14 23.4 °C 15.8 °C 1014.1 hPa West 0.2 km/h 4.8 km/h 62.2% 0 mm 148 W/m2
16:19 23.4 °C 15.5 °C 1014.1 hPa West 0.5 km/h 4.8 km/h 61.1% 0 mm 93 W/m2
16:24 23.4 °C 15.3 °C 1014.1 hPa West 1.1 km/h 6.4 km/h 60.3% 0 mm 83 W/m2
16:29 23.3 °C 15.4 °C 1014.4 hPa West 1.3 km/h 6.4 km/h 61.2% 0 mm 77 W/m2
16:34 23.3 °C 15.8 °C 1014.4 hPa West 2.3 km/h 6.4 km/h 62.9% 0 mm 72 W/m2
16:39 23.3 °C 15.9 °C 1014.4 hPa West 1.6 km/h 6.4 km/h 63.2% 0 mm 70 W/m2
16:44 23.3 °C 15.8 °C 1014.8 hPa WSW 1.1 km/h 9.7 km/h 62.7% 0 mm 69 W/m2
16:49 23.3 °C 15.7 °C 1014.8 hPa WSW 0.3 km/h 9.7 km/h 62.3% 0 mm 51 W/m2
16:54 23.2 °C 15.6 °C 1014.8 hPa WSW 0.2 km/h 9.7 km/h 62.2% 0 mm 62 W/m2
16:59 23.2 °C 15.9 °C 1014.8 hPa Calm   9.7 km/h 63.9% 0 mm 62 W/m2
17:04 23.1 °C 15.9 °C 1014.8 hPa WSW 0.2 km/h 9.7 km/h 64.4% 0 mm 51 W/m2
17:09 22.9 °C 15.5 °C 1014.8 hPa WSW 1.3 km/h 11.3 km/h 63.2% 0 mm 42 W/m2
17:14 22.7 °C 15.1 °C 1014.8 hPa Calm   11.3 km/h 61.8% 0 mm 30 W/m2
17:19 22.6 °C 14.8 °C 1014.8 hPa West 0.5 km/h 11.3 km/h 61.4% 0 mm 28 W/m2
17:24 22.4 °C 14.7 °C 1014.8 hPa Calm   11.3 km/h 61.3% 0 mm 26 W/m2
17:29 22.3 °C 14.7 °C 1014.8 hPa Calm   11.3 km/h 61.8% 0 mm 25 W/m2
17:34 22.2 °C 14.6 °C 1014.8 hPa West 0.5 km/h 11.3 km/h 62% 0 mm 23 W/m2
17:39 22.1 °C 14.4 °C 1014.8 hPa Calm   6.4 km/h 61.6% 0 mm 21 W/m2
17:44 22 °C 14.4 °C 1014.8 hPa Calm   6.4 km/h 62.2% 0 mm 21 W/m2
17:49 21.9 °C 14.3 °C 1015.1 hPa Calm   6.4 km/h 62% 0 mm 19 W/m2
17:54 21.8 °C 14.2 °C 1015.1 hPa Calm   6.4 km/h 62.1% 0 mm 18 W/m2
17:59 21.7 °C 14.3 °C 1015.1 hPa Calm   6.4 km/h 62.8% 0 mm 18 W/m2
18:04 21.6 °C 14.4 °C 1015.1 hPa Calm   6.4 km/h 63.3% 0 mm 16 W/m2
18:09 21.5 °C 14.4 °C 1015.5 hPa Calm     64% 0 mm 16 W/m2
18:14 21.4 °C 14.3 °C 1015.5 hPa Calm     64% 0 mm 16 W/m2
18:19 21.3 °C 14.3 °C 1015.5 hPa Calm   1.6 km/h 64.5% 0 mm 16 W/m2
18:24 21.2 °C 14.4 °C 1015.5 hPa Calm   1.6 km/h 65.3% 0 mm 12 W/m2
18:29 21.1 °C 14.3 °C 1015.5 hPa Calm   1.6 km/h 65.2% 0 mm 12 W/m2
18:34 20.9 °C 14.2 °C 1015.5 hPa Calm   1.6 km/h 65.7% 0 mm 9 W/m2
18:39 20.8 °C 14.4 °C 1015.5 hPa Calm     66.9% 0 mm 5 W/m2
18:44 20.6 °C 14.3 °C 1015.5 hPa Calm     67% 0 mm 0 W/m2
18:49 20.5 °C 14.2 °C 1015.5 hPa Calm     67% 0 mm 0 W/m2
18:54 20.3 °C 14.3 °C 1015.5 hPa Calm     68.3% 0 mm 0 W/m2
18:59 20.2 °C 14.3 °C 1015.5 hPa Calm     69% 0 mm 0 W/m2
19:04 19.9 °C 14.1 °C 1015.5 hPa Calm     69.1% 0 mm 0 W/m2
19:09 19.7 °C 14.2 °C 1015.8 hPa Calm     70.5% 0 mm 0 W/m2
19:14 19.5 °C 14.3 °C 1015.8 hPa Calm     71.7% 0 mm 0 W/m2
19:19 19.3 °C 14.1 °C 1015.8 hPa Calm     72% 0 mm 0 W/m2
19:24 19.2 °C 14 °C 1015.8 hPa Calm     72% 0 mm 0 W/m2
19:29 19 °C 13.9 °C 1015.8 hPa Calm     72.5% 0 mm 0 W/m2
19:34 18.9 °C 14.2 °C 1015.8 hPa Calm     73.8% 0 mm 0 W/m2
19:39 18.8 °C 14.1 °C 1015.8 hPa Calm     74% 0 mm 0 W/m2
19:44 18.8 °C 14.1 °C 1015.8 hPa Calm     74% 0 mm 0 W/m2
19:49 18.7 °C 14.4 °C 1016.1 hPa Calm     75.9% 0 mm 0 W/m2
19:54 18.7 °C 14.8 °C 1016.1 hPa Calm     78.2% 0 mm 0 W/m2
19:59 18.6 °C 15 °C 1016.1 hPa Calm     79.5% 0 mm 0 W/m2
20:00 18.6 °C 15.1 °C 1016.1 hPa Calm     80% 0 mm 0 W/m2
20:09 18.7 °C 15.9 °C 1016.5 hPa Calm     84% 0 mm 0 W/m2
20:14 18.7 °C 15.8 °C 1016.5 hPa Calm     83.3% 0 mm 0 W/m2
20:19 18.7 °C 15.7 °C 1016.5 hPa Calm     83% 0 mm 0 W/m2
20:24 18.6 °C 15.7 °C 1016.5 hPa Calm     83% 0 mm 0 W/m2
20:29 18.6 °C 15.6 °C 1016.5 hPa Calm     83% 0 mm 0 W/m2
20:34 18.5 °C 15.6 °C 1016.5 hPa Calm     83% 0 mm 0 W/m2
20:39 18.4 °C 15.7 °C 1016.5 hPa Calm     83.8% 0 mm 0 W/m2
20:44 18.4 °C 15.7 °C 1016.5 hPa Calm     84% 0 mm 0 W/m2
20:49 18.3 °C 15.6 °C 1016.5 hPa Calm     84% 0 mm 0 W/m2
20:54 18.1 °C 15.4 °C 1016.5 hPa Calm     84% 0 mm 0 W/m2
20:59 17.9 °C 15.2 °C 1016.5 hPa Calm     84% 0 mm 0 W/m2
21:04 17.8 °C 15.2 °C 1016.5 hPa Calm     84.5% 0 mm 0 W/m2
21:09 17.7 °C 15.2 °C 1016.5 hPa Calm     85% 0 mm 0 W/m2
21:14 17.5 °C 15 °C 1016.5 hPa Calm     85.2% 0 mm 0 W/m2
21:19 17.3 °C 15 °C 1016.5 hPa Calm     86% 0 mm 0 W/m2
21:24 17.2 °C 14.8 °C 1016.5 hPa Calm     86% 0 mm 0 W/m2
21:29 17 °C 14.7 °C 1016.5 hPa Calm     86% 0 mm 0 W/m2
21:34 16.8 °C 14.6 °C 1016.5 hPa Calm     86.7% 0 mm 0 W/m2
21:39 16.7 °C 14.5 °C 1016.5 hPa Calm     87% 0 mm 0 W/m2
21:44 16.5 °C 14.4 °C 1016.5 hPa Calm     87.5% 0 mm 0 W/m2
21:49 16.4 °C 14.4 °C 1016.5 hPa Calm     88% 0 mm 0 W/m2
21:54 16.3 °C 14.3 °C 1016.5 hPa Calm   1.6 km/h 88.3% 0 mm 0 W/m2
21:59 16.2 °C 14.3 °C 1016.5 hPa Calm   1.6 km/h 89% 0 mm 0 W/m2
22:04 16.1 °C 14.2 °C 1016.5 hPa West 0.2 km/h 3.2 km/h 89% 0 mm 0 W/m2
22:09 15.9 °C 14.2 °C 1016.5 hPa Calm   3.2 km/h 89.1% 0 mm 0 W/m2
22:14 15.8 °C 14.2 °C 1016.5 hPa Calm   3.2 km/h 90% 0 mm 0 W/m2
22:19 15.8 °C 14.1 °C 1016.5 hPa Calm   3.2 km/h 90% 0 mm 0 W/m2
22:24 15.7 °C 14.1 °C 1016.5 hPa Calm   3.2 km/h 90% 0 mm 0 W/m2
22:29 15.7 °C 14 °C 1016.5 hPa Calm   3.2 km/h 90% 0 mm 0 W/m2
22:34 15.6 °C 13.9 °C 1016.5 hPa Calm   3.2 km/h 90% 0 mm 0 W/m2
22:39 15.5 °C 13.9 °C 1016.5 hPa Calm     90% 0 mm 0 W/m2
22:44 15.4 °C 13.8 °C 1016.1 hPa Calm     90% 0 mm 0 W/m2
22:49 15.3 °C 13.7 °C 1016.1 hPa Calm     90% 0 mm 0 W/m2
22:54 15.3 °C 13.7 °C 1016.1 hPa Calm     90% 0 mm 0 W/m2
22:59 15.2 °C 13.6 °C 1016.1 hPa Calm     90% 0 mm 0 W/m2
23:04 15.2 °C 13.6 °C 1016.1 hPa Calm     90% 0 mm 0 W/m2
23:09 15.2 °C 13.5 °C 1016.1 hPa Calm     90% 0 mm 0 W/m2
23:14 15.1 °C 13.4 °C 1016.1 hPa Calm     90% 0 mm 0 W/m2
23:19 15.1 °C 13.4 °C 1016.5 hPa Calm     90% 0 mm 0 W/m2
23:24 15 °C 13.4 °C 1016.5 hPa Calm     90.3% 0 mm 0 W/m2
23:29 15 °C 13.4 °C 1016.5 hPa Calm     90.4% 0 mm 0 W/m2
23:34 14.9 °C 13.3 °C 1016.5 hPa Calm     90% 0 mm 0 W/m2
23:39 14.9 °C 13.3 °C 1016.5 hPa Calm     90% 0 mm 0 W/m2
23:44 14.9 °C 13.3 °C 1016.5 hPa Calm     90% 0 mm 0 W/m2
23:49 14.9 °C 13.2 °C 1016.5 hPa Calm     90% 0 mm 0 W/m2
23:54 14.8 °C 13.2 °C 1016.5 hPa Calm     90% 0 mm 0 W/m2
23:59 14.9 °C 13.2 °C 1016.1 hPa Calm     90% 0 mm 0 W/m2
Hartford County Weather
Compliments of Weather Underground - 2 mb